Tanacross, AK (99776)

11:57 AM AKDT on May 23, 2017 (GMT -0800)
Turks on the Tundra | | Change Station

Elev 1635 ft 63.34 °N, 142.99 °W | Updated 10 minutes ago

Mostly Cloudy
Mostly Cloudy
52.5 °F
Feels Like 52.5 °F
N
5.0
Wind Variable Wind from North
Gusts 14.0 mph

Today
High -- | Low -- °F
--% Chance of Precip.
Yesterday
High -- | Low -- °F
Precip. -- in
Pressure 29.86 in
Visibility 10.0 miles
Clouds Scattered Clouds 5500 ft
Overcast 8500 ft
Dew Point 34 °F
Humidity 49%
Rainfall 0.00 in
Snow Depth Not available.
4:02 AM 11:00 PM
Waning Crescent, 6% visible
METAR PAOR 231953Z 32005KT 10SM SCT055 OVC085 12/M01 A2982 RMK AO2 SLP109 T01221011
Pressure 29.86 in
Visibility 10.0 miles
Clouds Scattered Clouds 5500 ft
Overcast 8500 ft
Dew Point 34 °F
Humidity 49%
Rainfall 0.00 in
Snow Depth Not available.
4:02 AM 11:00 PM
Waning Crescent, 6% visible
METAR PAOR 231953Z 32005KT 10SM SCT055 OVC085 12/M01 A2982 RMK AO2 SLP109 T01221011

Get Severe Weather Alerts

Thanks for signing up!

Be on the lookout for a verification email in your inbox.

You'll start receiving the daily forecast at 6 AM.

×

10-Day Weather Forecast

Almanac

Astronomy

May. 23, 2017 Rise Set
Actual Time
Civil Twilight
Nautical Twilight
Astronomical Twilight
Moon
Length of Visible Light
Length of Day
Tomorrow will be .
, % of the Moon is Illuminated

Today's Extremes

State Highs State Lows

Community

WunderPhotos

Category 6

Welcome to Category 6. This is the collective home for Weather Underground's featured writeups by Dr. Jeff Masters (right), Bob Henson (left), Chris Burt, and other regular contributors.

Nearby

Air Quality

  Air Quality AQ Index Pollutant
Not available.

Snow Depth

Station Depth Elevation

Earthquake Activity

City Distance Mag. Time & Date
Minimum magnitude displayed is 2.5.

Coastal Water Temperatures

Place Temperature

Stations

Nearby Weather Stations

Station Location Temp. Windchill Dew Point Humidity Wind Precip. Elev Updated Type
                   

Watches & Warnings

There are currently no watches in effect.